Sharon, Missouri
Current Conditions -  °F | °C
As of 2:15 PM on Monday 26 Jan 2015 (Local Time) from KVER Reporting Station
Clear Clear  
Wind Chill: 53°   Ceiling: Unl
Heat Index: 53°   Visibility: 10mi
Dew Point: 35°   Wind: 12mph
Humidity: 50%   Direction: 270°W
Pressure: 29.85"   Gusts: 21mph
Location:  39.2023°N, 93.0277°W
Report Text: KVER 262015Z AUTO 27010G18KT 10SM CLR 11/01 A2985 RMK AO2 T01140014
Loading
Personal Weather Stations






























Interactive Weather Map New forecast layout! Learn more

10-Day Weather Forecast

Advertisements
Track Severe Weather on mobile